Time;durP1;ratioP1;P1;durP2;ratioP2;P2;SDS_P1;SDS_P2;PMS_P1;PMS_P2;Temp;Humidity;BMP_temperature;BMP_pressure;BME280_temperature;BME280_humidity;BME280_pressure;Samples;Min_cycle;Max_cycle;Signal;HPM_P1;HPM_P2
2022/03/29 00:01:24;;;;;;;20.33;13.10;;;7.40;1.00;;;;;;4995730;28;20527;-77
2022/03/29 00:03:52;;;;;;;19.90;12.13;;;7.30;1.00;;;;;;4997851;28;20233;-78
2022/03/29 00:06:18;;;;;;;18.73;12.02;;;7.20;1.00;;;;;;4997111;28;20557;-80
2022/03/29 00:08:45;;;;;;;21.60;11.93;;;7.20;1.00;;;;;;4995496;28;20254;-79
2022/03/29 00:11:13;;;;;;;15.02;11.02;;;7.20;1.00;;;;;;4993015;28;20223;-80
2022/03/29 00:13:39;;;;;;;19.25;12.20;;;7.10;1.00;;;;;;4995358;28;20209;-79
2022/03/29 00:16:06;;;;;;;21.50;13.45;;;7.20;1.00;;;;;;4996316;28;20284;-78
2022/03/29 00:18:32;;;;;;;20.97;13.70;;;7.10;1.00;;;;;;4995605;28;20246;-79
2022/03/29 00:21:00;;;;;;;18.02;11.77;;;6.90;1.00;;;;;;4995908;28;20448;-79
2022/03/29 00:23:27;;;;;;;18.30;12.13;;;6.90;1.00;;;;;;4996679;28;20264;-79
2022/03/29 00:25:53;;;;;;;15.60;12.15;;;7.00;1.00;;;;;;4995874;28;20476;-79
2022/03/29 00:28:20;;;;;;;21.25;12.70;;;7.00;1.00;;;;;;4995605;28;20327;-79
2022/03/29 00:30:47;;;;;;;14.85;11.73;;;7.10;1.00;;;;;;4995577;28;20312;-79
2022/03/29 00:33:13;;;;;;;18.52;12.75;;;7.00;1.00;;;;;;4995863;28;20222;-78
2022/03/29 00:35:40;;;;;;;15.43;11.40;;;7.00;1.00;;;;;;4995444;28;20280;-78
2022/03/29 00:38:08;;;;;;;14.90;10.40;;;7.00;1.00;;;;;;4995848;28;20508;-79
2022/03/29 00:40:34;;;;;;;18.00;11.07;;;7.10;1.00;;;;;;4997278;28;20253;-80
2022/03/29 00:43:01;;;;;;;17.00;12.43;;;7.20;1.00;;;;;;4999233;28;20247;-79
2022/03/29 00:45:27;;;;;;;15.63;11.90;;;7.20;1.00;;;;;;5000942;28;20441;-80
2022/03/29 00:47:54;;;;;;;19.77;11.60;;;7.30;1.00;;;;;;5000717;28;20486;-79
2022/03/29 00:50:20;;;;;;;16.67;11.30;;;7.10;1.00;;;;;;5001379;28;20225;-80
2022/03/29 00:52:47;;;;;;;19.38;11.73;;;7.20;1.00;;;;;;5000991;28;20427;-79
2022/03/29 00:55:17;;;;;;;16.98;11.15;;;6.90;1.00;;;;;;5001751;28;20218;-80
2022/03/29 00:57:45;;;;;;;16.38;11.88;;;7.10;1.00;;;;;;5001686;28;20201;-79
2022/03/29 01:00:14;;;;;;;18.70;11.30;;;7.20;1.00;;;;;;5002997;28;20205;-78
2022/03/29 01:02:41;;;;;;;15.13;10.88;;;7.10;1.00;;;;;;5003794;28;20233;-78
2022/03/29 01:05:09;;;;;;;22.00;12.93;;;7.10;1.00;;;;;;5002102;28;20277;-78
2022/03/29 01:07:36;;;;;;;18.98;12.73;;;7.20;1.00;;;;;;5001866;28;20436;-79
2022/03/29 01:10:04;;;;;;;18.42;13.25;;;7.10;1.00;;;;;;5000499;28;20239;-78
2022/03/29 01:12:33;;;;;;;15.55;10.60;;;7.00;1.00;;;;;;4999476;28;20213;-79
2022/03/29 01:15:00;;;;;;;17.45;12.50;;;6.90;1.00;;;;;;4999996;28;20252;-79
2022/03/29 01:17:43;;;;;;;17.20;12.73;;;7.10;1.00;;;;;;5005123;28;20205;-79
2022/03/29 01:20:12;;;;;;;16.33;11.10;;;7.00;1.00;;;;;;5006519;28;20221;-78
2022/03/29 01:22:42;;;;;;;13.30;10.60;;;7.00;1.00;;;;;;5005115;28;20456;-77
2022/03/29 01:25:11;;;;;;;17.00;12.17;;;7.00;1.00;;;;;;5011194;28;20201;-78
2022/03/29 01:27:38;;;;;;;16.48;11.73;;;7.20;1.00;;;;;;4999113;28;20506;-78
2022/03/29 01:30:06;;;;;;;15.82;11.95;;;7.10;1.00;;;;;;5001408;28;20197;-77
2022/03/29 01:32:35;;;;;;;17.15;12.50;;;7.10;1.00;;;;;;5033315;23;20284;-81
2022/03/29 01:35:04;;;;;;;16.10;11.50;;;7.10;1.00;;;;;;5019496;28;20261;-80
2022/03/29 01:37:31;;;;;;;17.88;12.15;;;7.00;1.00;;;;;;5020585;28;20230;-80
2022/03/29 01:39:59;;;;;;;24.23;13.32;;;7.00;1.00;;;;;;5020491;28;20192;-80
2022/03/29 01:42:26;;;;;;;20.65;13.38;;;7.00;1.00;;;;;;5020611;28;20274;-81
2022/03/29 01:44:52;;;;;;;16.52;11.95;;;6.90;1.00;;;;;;5020737;28;20198;-81
2022/03/29 01:47:20;;;;;;;17.60;11.20;;;7.10;1.00;;;;;;5013776;28;20190;-80
2022/03/29 01:49:47;;;;;;;17.37;12.20;;;7.10;1.00;;;;;;5006590;28;20454;-80
2022/03/29 01:52:14;;;;;;;15.13;12.10;;;7.20;1.00;;;;;;5005438;28;20456;-81
2022/03/29 01:54:41;;;;;;;16.97;12.47;;;7.20;1.00;;;;;;5004898;28;20459;-81
2022/03/29 01:57:09;;;;;;;15.93;11.77;;;7.20;1.00;;;;;;5004460;28;20448;-81
2022/03/29 02:02:16;;;;;;;18.55;12.95;;;7.20;1.00;;;;;;5016496;28;20432;-80
2022/03/29 02:04:42;;;;;;;20.23;13.23;;;7.30;1.00;;;;;;5015462;28;20210;-80
2022/03/29 02:07:09;;;;;;;19.27;12.30;;;7.20;1.00;;;;;;5018778;28;20186;-80
2022/03/29 02:09:35;;;;;;;22.02;14.23;;;7.20;1.00;;;;;;5018370;28;20201;-80
2022/03/29 02:12:03;;;;;;;20.70;13.10;;;7.20;1.00;;;;;;5017702;28;20236;-79
2022/03/29 02:14:34;;;;;;;16.77;12.07;;;7.00;1.00;;;;;;5015212;28;20210;-79
2022/03/29 02:17:00;;;;;;;18.85;12.90;;;7.10;1.00;;;;;;5016061;28;20232;-79
2022/03/29 02:19:27;;;;;;;19.67;12.90;;;7.20;1.00;;;;;;5017240;28;20210;-80
2022/03/29 02:21:54;;;;;;;23.80;13.93;;;7.00;1.00;;;;;;5017429;28;20464;-80
2022/03/29 02:24:20;;;;;;;21.02;13.98;;;7.00;1.00;;;;;;5014733;28;20201;-81
2022/03/29 02:26:47;;;;;;;21.50;13.90;;;7.00;1.00;;;;;;5013073;28;20280;-80
2022/03/29 02:29:14;;;;;;;20.67;14.63;;;7.00;1.00;;;;;;5005650;28;20209;-81
2022/03/29 02:31:42;;;;;;;22.38;13.60;;;6.70;23.90;;;;;;5002990;28;20233;-80
2022/03/29 02:34:08;;;;;;;18.40;14.55;;;6.90;1.00;;;;;;5002857;28;20263;-81
2022/03/29 02:36:35;;;;;;;18.60;13.43;;;6.90;1.00;;;;;;5002913;28;20224;-80
2022/03/29 02:39:01;;;;;;;23.00;13.68;;;6.90;1.00;;;;;;5002623;28;20209;-80
2022/03/29 02:41:28;;;;;;;26.73;14.32;;;7.00;1.00;;;;;;5002222;28;20226;-80
2022/03/29 02:43:54;;;;;;;20.08;14.27;;;7.10;1.00;;;;;;5003621;28;20201;-80
2022/03/29 02:46:21;;;;;;;21.98;14.95;;;7.00;1.00;;;;;;5002513;28;20628;-80
2022/03/29 02:48:49;;;;;;;23.90;14.27;;;7.00;1.00;;;;;;5002380;28;20289;-80
2022/03/29 02:51:17;;;;;;;25.77;14.73;;;7.00;1.00;;;;;;5002148;28;20240;-80
2022/03/29 02:53:44;;;;;;;21.38;15.57;;;7.00;1.00;;;;;;5002168;28;20295;-81
2022/03/29 02:56:10;;;;;;;22.83;14.57;;;6.90;1.00;;;;;;5002385;28;20222;-80
2022/03/29 02:58:37;;;;;;;29.27;16.60;;;6.90;1.00;;;;;;5002681;28;20201;-81
2022/03/29 03:01:04;;;;;;;25.33;15.75;;;7.00;1.00;;;;;;5002542;28;20229;-81
2022/03/29 03:03:31;;;;;;;24.13;14.88;;;7.00;1.00;;;;;;5002906;28;20273;-81
2022/03/29 03:06:00;;;;;;;23.40;15.48;;;7.20;1.00;;;;;;5002948;28;20209;-81
2022/03/29 03:08:27;;;;;;;23.07;14.63;;;7.10;1.00;;;;;;5004984;28;20210;-80
2022/03/29 03:10:53;;;;;;;22.63;14.43;;;7.20;1.00;;;;;;5004253;28;20484;-81
2022/03/29 03:13:20;;;;;;;23.00;15.32;;;7.30;1.00;;;;;;5004841;28;20830;-80
2022/03/29 03:15:47;;;;;;;27.07;17.23;;;7.30;1.00;;;;;;5002500;28;20302;-80
2022/03/29 03:18:13;;;;;;;21.98;15.52;;;7.20;1.00;;;;;;5002206;28;20476;-81
2022/03/29 03:20:40;;;;;;;19.73;14.88;;;7.10;1.00;;;;;;5003776;28;20207;-81
2022/03/29 03:23:08;;;;;;;21.75;14.70;;;7.20;1.00;;;;;;5003137;28;20206;-81
2022/03/29 03:25:34;;;;;;;22.58;15.40;;;7.20;1.00;;;;;;5004537;28;20253;-81
2022/03/29 03:28:01;;;;;;;21.30;15.82;;;7.20;1.00;;;;;;5004761;28;20208;-81
2022/03/29 03:30:28;;;;;;;26.98;15.43;;;7.10;1.00;;;;;;5004720;28;20217;-81
2022/03/29 03:32:55;;;;;;;20.70;14.07;;;7.20;1.00;;;;;;5005229;28;20209;-80
2022/03/29 03:35:22;;;;;;;27.60;16.20;;;7.20;1.00;;;;;;5004411;28;20201;-82
2022/03/29 03:37:50;;;;;;;21.38;14.48;;;7.20;1.00;;;;;;5004460;28;20211;-81
2022/03/29 03:40:18;;;;;;;26.85;16.20;;;7.20;1.00;;;;;;5003873;28;20210;-80
2022/03/29 03:42:45;;;;;;;26.30;16.83;;;7.20;1.00;;;;;;5003874;28;20260;-80
2022/03/29 03:45:11;;;;;;;23.40;14.32;;;7.20;1.00;;;;;;5004252;28;20208;-81
2022/03/29 03:47:38;;;;;;;20.95;15.82;;;7.00;1.00;;;;;;5003898;28;20205;-81
2022/03/29 03:50:06;;;;;;;29.13;16.27;;;7.00;1.00;;;;;;5005120;28;20244;-79
2022/03/29 03:52:33;;;;;;;28.60;15.77;;;7.00;1.00;;;;;;5006183;28;20492;-81
2022/03/29 03:54:59;;;;;;;26.20;15.70;;;7.00;1.00;;;;;;5004775;28;20230;-82
2022/03/29 03:57:27;;;;;;;23.17;15.48;;;6.90;1.00;;;;;;5003569;28;20473;-82
2022/03/29 03:59:56;;;;;;;25.98;16.77;;;6.90;1.00;;;;;;5004116;28;20476;-81
2022/03/29 04:02:34;;;;;;;25.33;16.70;;;6.70;1.00;;;;;;5003541;28;20225;-83
2022/03/29 04:05:00;;;;;;;24.13;16.27;;;6.90;1.00;;;;;;5004414;28;20193;-80
2022/03/29 04:07:27;;;;;;;23.40;16.65;;;6.90;1.00;;;;;;5003738;28;20209;-81
2022/03/29 04:09:53;;;;;;;23.50;16.75;;;6.90;1.00;;;;;;5004300;28;20209;-81
2022/03/29 04:12:20;;;;;;;23.73;15.10;;;6.90;1.00;;;;;;5003954;28;20285;-81
2022/03/29 04:14:48;;;;;;;28.38;17.42;;;6.90;1.00;;;;;;5004728;28;20201;-82
2022/03/29 04:17:14;;;;;;;26.60;15.75;;;7.00;1.00;;;;;;5000952;28;20240;-82
2022/03/29 04:19:41;;;;;;;34.85;20.58;;;6.80;1.00;;;;;;5003135;28;20205;-82
2022/03/29 04:22:07;;;;;;;24.38;17.40;;;6.80;1.00;;;;;;5008294;28;20609;-81
2022/03/29 04:24:34;;;;;;;32.20;18.55;;;6.80;1.00;;;;;;5009179;28;20565;-80
2022/03/29 04:27:01;;;;;;;32.15;19.65;;;6.80;1.00;;;;;;5010120;28;20236;-80
2022/03/29 04:29:27;;;;;;;32.33;17.40;;;6.80;1.00;;;;;;5014984;28;20217;-81
2022/03/29 04:31:55;;;;;;;27.55;16.60;;;6.80;1.00;;;;;;5015171;28;20265;-80
2022/03/29 04:34:22;;;;;;;32.15;19.33;;;7.10;1.00;;;;;;5007814;28;20206;-80
2022/03/29 04:36:49;;;;;;;24.67;16.08;;;6.90;1.00;;;;;;5013055;28;20217;-81
2022/03/29 04:39:15;;;;;;;25.77;17.17;;;7.00;1.00;;;;;;5018417;28;20208;-80
2022/03/29 04:41:42;;;;;;;26.60;17.20;;;6.80;1.00;;;;;;5017880;28;20225;-80
2022/03/29 04:44:08;;;;;;;27.05;16.98;;;6.90;1.00;;;;;;5017987;28;20197;-80
2022/03/29 04:46:35;;;;;;;25.40;15.80;;;6.90;1.00;;;;;;5016055;28;20197;-80
2022/03/29 04:49:05;;;;;;;23.88;16.25;;;7.00;99.90;;;;;;5018906;28;20205;-80
2022/03/29 04:51:34;;;;;;;23.92;14.70;;;6.90;99.90;;;;;;5017270;28;20670;-80
2022/03/29 04:54:01;;;;;;;21.50;15.00;;;6.90;1.00;;;;;;5019401;28;20212;-80
2022/03/29 04:56:28;;;;;;;21.30;16.20;;;6.90;1.00;;;;;;5015035;28;20692;-81
2022/03/29 04:58:54;;;;;;;24.85;16.17;;;6.90;1.00;;;;;;5011333;28;20232;-81
2022/03/29 05:01:21;;;;;;;26.05;17.52;;;6.80;1.00;;;;;;5009293;28;20228;-81
2022/03/29 05:03:48;;;;;;;22.42;15.02;;;6.80;1.00;;;;;;5011903;28;20273;-81
2022/03/29 05:06:15;;;;;;;28.33;18.30;;;6.80;1.00;;;;;;5011487;28;20197;-81
2022/03/29 05:08:42;;;;;;;29.85;18.00;;;6.70;1.00;;;;;;5013622;28;20228;-81
2022/03/29 05:11:09;;;;;;;27.25;17.90;;;6.70;1.00;;;;;;5013423;28;20228;-82
2022/03/29 05:13:35;;;;;;;28.55;17.08;;;6.50;1.00;;;;;;5011159;28;20205;-80
2022/03/29 05:16:02;;;;;;;30.38;19.45;;;6.60;1.00;;;;;;5013427;28;20225;-80
2022/03/29 05:18:29;;;;;;;27.48;17.80;;;6.70;1.00;;;;;;5012986;28;20212;-80
2022/03/29 05:20:55;;;;;;;33.67;19.40;;;6.60;1.00;;;;;;5013747;28;20232;-81
2022/03/29 05:23:23;;;;;;;36.05;19.08;;;6.70;1.00;;;;;;5014676;28;20216;-80
2022/03/29 05:25:50;;;;;;;28.50;17.67;;;6.80;1.00;;;;;;5015599;28;20205;-80
2022/03/29 05:28:17;;;;;;;28.33;17.55;;;6.80;1.00;;;;;;5014182;28;20205;-80
2022/03/29 05:30:43;;;;;;;25.52;16.92;;;6.90;1.00;;;;;;5012800;28;20219;-81
2022/03/29 05:33:15;;;;;;;29.70;18.20;;;6.90;1.00;;;;;;5014077;28;20610;-80
2022/03/29 05:35:43;;;;;;;27.05;16.75;;;6.80;1.00;;;;;;5014579;28;20213;-81
2022/03/29 05:38:10;;;;;;;24.50;16.13;;;6.70;1.00;;;;;;5011710;28;20228;-80
2022/03/29 05:40:38;;;;;;;29.70;19.25;;;5.70;1.00;;;;;;5008639;28;20240;-81
2022/03/29 05:43:09;;;;;;;30.17;20.08;;;6.70;1.00;;;;;;5009574;28;20244;-81
2022/03/29 05:45:36;;;;;;;34.50;19.27;;;6.80;1.00;;;;;;5013070;28;20220;-80
2022/03/29 05:50:46;;;;;;;30.52;18.08;;;6.80;1.00;;;;;;5005006;28;20282;-81
2022/03/29 05:53:13;;;;;;;29.52;18.52;;;6.80;1.00;;;;;;5006025;28;20663;-81
2022/03/29 05:55:42;;;;;;;30.13;19.80;;;6.90;1.00;;;;;;5003758;28;20311;-81
2022/03/29 05:58:09;;;;;;;34.30;18.55;;;7.00;1.00;;;;;;5003631;28;20229;-81
2022/03/29 06:00:36;;;;;;;31.45;19.95;;;6.70;1.00;;;;;;5003967;28;20209;-81
2022/03/29 06:03:02;;;;;;;33.22;17.77;;;6.80;1.00;;;;;;5003124;28;20260;-82
2022/03/29 06:05:29;;;;;;;34.03;19.20;;;6.60;1.00;;;;;;5003858;28;20228;-82
2022/03/29 06:07:59;;;;;;;33.67;19.25;;;6.90;1.00;;;;;;5004365;28;20197;-81
2022/03/29 06:10:26;;;;;;;31.73;18.77;;;6.90;1.00;;;;;;5004597;28;20715;-82
2022/03/29 06:12:54;;;;;;;35.90;18.77;;;6.90;1.00;;;;;;5006304;28;20208;-81
2022/03/29 06:15:21;;;;;;;29.67;19.10;;;7.00;1.00;;;;;;5006888;28;20201;-81
2022/03/29 06:17:47;;;;;;;32.08;19.77;;;7.00;99.90;;;;;;5007529;28;20229;-81
2022/03/29 06:20:14;;;;;;;27.33;17.27;;;7.00;99.90;;;;;;5009213;28;20387;-81
2022/03/29 06:22:44;;;;;;;28.73;17.35;;;7.30;99.90;;;;;;5016640;28;20284;-81
2022/03/29 06:25:11;;;;;;;32.05;16.88;;;7.10;99.90;;;;;;5017094;28;20183;-81
2022/03/29 06:27:37;;;;;;;37.85;19.00;;;7.00;99.90;;;;;;5016943;28;20221;-80
2022/03/29 06:30:07;;;;;;;29.38;17.75;;;7.20;99.90;;;;;;5017274;28;20212;-80
2022/03/29 06:32:34;;;;;;;31.77;17.10;;;7.00;1.00;;;;;;5018126;28;20236;-81
2022/03/29 06:35:01;;;;;;;26.60;17.88;;;7.00;99.90;;;;;;5014574;28;20243;-80
2022/03/29 06:37:28;;;;;;;27.93;18.70;;;7.00;1.00;;;;;;5011377;28;20225;-81
2022/03/29 06:39:54;;;;;;;28.52;17.65;;;7.00;99.90;;;;;;5010969;28;20496;-81
2022/03/29 06:42:21;;;;;;;32.80;19.50;;;7.20;99.90;;;;;;5005726;28;20244;-81
2022/03/29 06:44:48;;;;;;;42.28;19.25;;;7.20;1.00;;;;;;5007015;28;20228;-81
2022/03/29 06:47:16;;;;;;;28.17;17.60;;;7.20;1.00;;;;;;5011892;28;20256;-80
2022/03/29 06:49:42;;;;;;;28.10;17.67;;;7.20;99.90;;;;;;5014899;28;20276;-80
2022/03/29 06:52:10;;;;;;;30.33;18.17;;;7.30;1.00;;;;;;5006712;28;20234;-81
2022/03/29 06:54:37;;;;;;;28.10;16.77;;;7.50;1.00;;;;;;5007917;28;20363;-80
2022/03/29 06:57:08;;;;;;;29.52;16.35;;;7.50;99.90;;;;;;5011851;28;20226;-80
2022/03/29 06:59:35;;;;;;;31.38;17.58;;;7.50;99.90;;;;;;5012310;28;20194;-80
2022/03/29 07:02:01;;;;;;;38.05;17.45;;;7.60;1.00;;;;;;5008368;28;20281;-82
2022/03/29 07:04:29;;;;;;;27.47;15.80;;;7.70;99.90;;;;;;5001952;28;20210;-81
2022/03/29 07:06:56;;;;;;;33.40;18.40;;;7.60;85.40;;;;;;5001882;28;20461;-82
2022/03/29 07:12:07;;;;;;;34.13;17.33;;;7.70;99.90;;;;;;5005267;28;20454;-86
2022/03/29 07:14:34;;;;;;;33.77;17.03;;;7.90;99.90;;;;;;5000240;28;20261;-82
2022/03/29 07:17:00;;;;;;;29.47;16.67;;;8.00;99.90;;;;;;5000163;28;20462;-82
2022/03/29 07:19:28;;;;;;;27.93;17.60;;;8.10;99.90;;;;;;4999417;28;20444;-82
2022/03/29 07:21:56;;;;;;;25.57;16.00;;;7.60;1.00;;;;;;5000865;28;20447;-82
2022/03/29 07:24:23;;;;;;;25.50;15.07;;;7.50;14.50;;;;;;5000340;28;20449;-81
2022/03/29 07:26:49;;;;;;;25.17;15.00;;;7.60;1.00;;;;;;5001563;28;20487;-81
2022/03/29 07:29:16;;;;;;;24.73;14.50;;;8.00;1.00;;;;;;5004324;28;20457;-81
2022/03/29 07:31:43;;;;;;;23.87;15.00;;;7.90;99.90;;;;;;5028635;23;20492;-83
2022/03/29 07:34:09;;;;;;;26.47;15.53;;;8.10;1.00;;;;;;5008414;28;20942;-82
2022/03/29 07:36:38;;;;;;;22.60;14.90;;;8.10;99.90;;;;;;5007916;28;20440;-79
2022/03/29 07:39:05;;;;;;;27.87;13.70;;;;;;;;;;5008751;28;20481;-81
2022/03/29 07:41:33;;;;;;;20.23;14.90;;;7.90;97.90;;;;;;5006988;28;20473;-83
2022/03/29 07:44:00;;;;;;;25.57;15.37;;;7.80;1.00;;;;;;5006386;28;20449;-79
2022/03/29 07:46:27;;;;;;;21.50;12.82;;;;;;;;;;5011187;28;20458;-83
2022/03/29 07:48:55;;;;;;;20.40;13.27;;;;;;;;;;5013385;28;20210;-82
2022/03/29 07:51:22;;;;;;;20.92;14.40;;;8.40;49.00;;;;;;5015370;28;20460;-80
2022/03/29 07:53:51;;;;;;;21.40;13.20;;;8.30;39.00;;;;;;5017350;28;20198;-79
2022/03/29 07:56:17;;;;;;;22.10;12.03;;;8.60;81.20;;;;;;5018184;28;20462;-81
2022/03/29 07:58:44;;;;;;;20.20;11.93;;;8.60;1.00;;;;;;5020488;28;20470;-80
2022/03/29 08:01:11;;;;;;;23.30;14.93;;;8.40;99.90;;;;;;5016721;28;20442;-81
2022/03/29 08:03:37;;;;;;;18.97;14.23;;;8.60;1.00;;;;;;5012933;28;20456;-83
2022/03/29 08:06:04;;;;;;;19.87;12.73;;;8.50;1.00;;;;;;5010867;28;20455;-82
2022/03/29 08:08:32;;;;;;;19.40;12.60;;;8.60;1.00;;;;;;5010166;28;20447;-82
2022/03/29 08:11:01;;;;;;;24.23;14.80;;;8.80;99.90;;;;;;5012135;28;20476;-82
2022/03/29 08:13:28;;;;;;;29.23;14.40;;;8.90;1.00;;;;;;5013319;28;20425;-82
2022/03/29 08:15:56;;;;;;;21.67;13.57;;;8.80;1.00;;;;;;5010534;28;20457;-80
2022/03/29 08:18:24;;;;;;;21.07;13.47;;;9.00;1.00;;;;;;5007042;28;20492;-81
2022/03/29 08:20:50;;;;;;;17.63;12.13;;;9.00;1.00;;;;;;5007342;28;20451;-82
2022/03/29 08:23:17;;;;;;;20.60;13.07;;;9.30;99.90;;;;;;5005507;28;20538;-82
2022/03/29 08:25:44;;;;;;;22.43;14.00;;;9.50;1.00;;;;;;5005185;28;20478;-82
2022/03/29 08:28:13;;;;;;;19.73;12.03;;;9.40;1.00;;;;;;5006514;28;20421;-82
2022/03/29 08:30:40;;;;;;;18.17;11.90;;;9.30;1.00;;;;;;5005772;28;20467;-81
2022/03/29 08:33:08;;;;;;;20.67;12.40;;;9.20;1.00;;;;;;5006740;28;20862;-82
2022/03/29 08:35:37;;;;;;;20.97;12.43;;;9.10;1.00;;;;;;5006513;28;20448;-83
2022/03/29 08:38:04;;;;;;;16.40;11.90;;;9.10;1.00;;;;;;5006735;28;20810;-82
2022/03/29 08:40:32;;;;;;;23.80;13.40;;;9.20;13.90;;;;;;5007492;28;20436;-82
2022/03/29 08:43:00;;;;;;;18.70;12.43;;;9.30;1.00;;;;;;5008961;28;20478;-83
2022/03/29 08:45:30;;;;;;;20.70;11.40;;;9.40;1.00;;;;;;5007090;28;20482;-81
2022/03/29 08:47:59;;;;;;;18.40;11.70;;;9.40;1.00;;;;;;5007300;28;20460;-81
2022/03/29 08:50:35;;;;;;;18.13;11.53;;;9.40;1.00;;;;;;5010661;28;20440;-80
2022/03/29 08:53:03;;;;;;;15.53;10.33;;;9.30;1.00;;;;;;5009122;28;20879;-82
2022/03/29 08:55:29;;;;;;;19.57;10.73;;;9.10;60.70;;;;;;5007080;28;20514;-83
2022/03/29 08:57:56;;;;;;;20.67;11.83;;;9.20;1.00;;;;;;5006460;28;20479;-82
2022/03/29 09:00:24;;;;;;;17.33;11.40;;;9.20;1.00;;;;;;5006590;28;20458;-81
2022/03/29 09:02:52;;;;;;;18.13;13.30;;;9.20;1.00;;;;;;5004436;28;20453;-84
2022/03/29 09:05:23;;;;;;;23.77;13.30;;;9.30;1.00;;;;;;5005332;28;20794;-80
2022/03/29 09:07:52;;;;;;;20.40;12.70;;;9.50;1.00;;;;;;5005039;28;20437;-81
2022/03/29 09:10:20;;;;;;;20.27;11.80;;;;;;;;;;5004975;28;20427;-82
2022/03/29 09:12:47;;;;;;;19.90;13.30;;;9.70;1.00;;;;;;5005514;28;20498;-83
2022/03/29 09:15:14;;;;;;;22.50;11.23;;;9.60;1.00;;;;;;5006678;28;20824;-82
2022/03/29 09:17:42;;;;;;;17.00;11.43;;;9.50;1.00;;;;;;5005565;28;20481;-82
2022/03/29 09:20:13;;;;;;;19.20;11.73;;;9.30;1.00;;;;;;5004123;28;20443;-81
2022/03/29 09:22:43;;;;;;;17.60;12.00;;;9.40;1.00;;;;;;5004871;28;21034;-83
2022/03/29 09:25:12;;;;;;;21.60;11.63;;;9.40;1.00;;;;;;5005150;28;20448;-83
2022/03/29 09:27:53;;;;;;;18.10;12.57;;;9.50;1.00;;;;;;5006355;28;20455;-79
2022/03/29 09:30:21;;;;;;;19.90;12.90;;;9.60;1.00;;;;;;5007291;28;20739;-80
2022/03/29 09:32:56;;;;;;;18.97;11.27;;;9.70;1.00;;;;;;5008630;28;20537;-79
2022/03/29 09:35:24;;;;;;;21.03;15.03;;;9.90;1.00;;;;;;5008184;28;20464;-80
2022/03/29 09:37:51;;;;;;;29.43;13.97;;;9.80;1.00;;;;;;5006764;28;20473;-82
2022/03/29 09:40:18;;;;;;;18.97;13.80;;;10.10;1.00;;;;;;5008878;28;20475;-80
2022/03/29 09:43:03;;;;;;;17.77;13.80;;;10.20;1.00;;;;;;5009548;28;20471;-81
2022/03/29 09:45:44;;;;;;;17.30;13.40;;;10.20;1.00;;;;;;5008012;28;20418;-80
2022/03/29 09:48:22;;;;;;;19.00;12.40;;;10.20;1.00;;;;;;5008384;28;20422;-81
2022/03/29 09:50:53;;;;;;;21.47;13.93;;;10.10;1.00;;;;;;5006999;28;20436;-82
2022/03/29 09:53:40;;;;;;;18.77;12.50;;;10.00;1.00;;;;;;5006561;28;20432;-82
2022/03/29 09:56:08;;;;;;;23.13;13.00;;;10.00;1.00;;;;;;5007325;28;20452;-82
2022/03/29 09:58:38;;;;;;;19.27;12.37;;;10.00;1.00;;;;;;5006200;28;20519;-82
2022/03/29 10:01:06;;;;;;;22.77;13.50;;;10.00;1.00;;;;;;5005890;28;20504;-80
2022/03/29 10:03:34;;;;;;;22.00;12.90;;;10.30;1.00;;;;;;5005676;28;20460;-80
2022/03/29 10:06:05;;;;;;;22.00;13.57;;;10.40;1.00;;;;;;5008674;28;20443;-80
2022/03/29 10:11:21;;;;;;;18.20;12.03;;;10.50;1.00;;;;;;5006087;28;20451;-83
2022/03/29 10:13:49;;;;;;;17.53;12.67;;;10.40;99.90;;;;;;5005900;28;20448;-81
2022/03/29 10:16:17;;;;;;;18.03;11.70;;;10.30;99.90;;;;;;5006680;28;20460;-83
2022/03/29 10:18:45;;;;;;;18.10;12.97;;;10.30;99.90;;;;;;5008359;28;20491;-81
2022/03/29 10:21:14;;;;;;;16.27;11.27;;;10.70;1.00;;;;;;5008376;28;20430;-81
2022/03/29 10:23:45;;;;;;;17.70;11.70;;;10.40;99.90;;;;;;5011358;28;20810;-81
2022/03/29 10:26:16;;;;;;;19.23;12.67;;;10.50;99.90;;;;;;5010020;28;20403;-83
2022/03/29 10:28:43;;;;;;;17.80;12.60;;;10.50;99.90;;;;;;5009635;28;20482;-81
2022/03/29 10:31:28;;;;;;;20.57;10.60;;;10.60;1.00;;;;;;5004360;28;20514;-80
2022/03/29 10:34:18;;;;;;;15.47;11.27;;;10.60;99.90;;;;;;5005105;28;20954;-82
2022/03/29 10:37:13;;;;;;;15.73;10.80;;;10.80;99.90;;;;;;5011987;28;20459;-83
2022/03/29 10:39:49;;;;;;;14.97;10.73;;;10.70;99.90;;;;;;5004583;28;20494;-81
2022/03/29 10:42:30;;;;;;;15.03;10.60;;;10.60;99.90;;;;;;5012424;28;20463;-83
2022/03/29 10:45:04;;;;;;;20.10;10.60;;;10.30;1.00;;;;;;5016839;28;20444;-80
2022/03/29 10:47:31;;;;;;;18.67;13.13;;;10.60;99.90;;;;;;5015570;28;20451;-82
2022/03/29 10:49:59;;;;;;;17.70;11.30;;;10.50;99.90;;;;;;5011283;28;20444;-82
2022/03/29 10:52:37;;;;;;;17.90;12.00;;;10.60;99.90;;;;;;5008090;28;20567;-82
2022/03/29 10:55:25;;;;;;;15.40;11.20;;;10.80;99.90;;;;;;5006925;28;20411;-83
2022/03/29 10:58:12;;;;;;;15.90;12.13;;;10.70;99.90;;;;;;5005773;28;20476;-82
2022/03/29 11:00:44;;;;;;;17.77;12.10;;;11.00;99.90;;;;;;5008845;28;20464;-79
2022/03/29 11:03:13;;;;;;;22.17;12.67;;;10.80;99.90;;;;;;5013208;28;20467;-80
2022/03/29 11:06:06;;;;;;;16.10;11.53;;;10.00;99.90;;;;;;5013615;28;20441;-80
2022/03/29 11:08:35;;;;;;;21.60;9.63;;;11.10;99.90;;;;;;5012496;28;20440;-82
2022/03/29 11:11:03;;;;;;;15.30;10.87;;;11.30;1.00;;;;;;5012520;28;20444;-81
2022/03/29 11:13:38;;;;;;;12.40;9.40;;;11.40;99.90;;;;;;5012814;28;20452;-82
2022/03/29 11:16:31;;;;;;;16.60;10.20;;;11.40;1.00;;;;;;5011210;28;20448;-83
2022/03/29 11:18:59;;;;;;;14.07;10.23;;;11.50;99.90;;;;;;5011752;28;20511;-80
2022/03/29 11:21:40;;;;;;;11.77;9.17;;;11.30;99.90;;;;;;5011285;28;20475;-82
2022/03/29 11:24:15;;;;;;;17.87;10.53;;;11.30;99.90;;;;;;5010626;28;20440;-81
2022/03/29 11:26:56;;;;;;;16.57;9.00;;;11.30;99.90;;;;;;5010604;28;20464;-80
2022/03/29 11:29:25;;;;;;;16.03;8.70;;;11.80;1.00;;;;;;5008168;28;20464;-83
2022/03/29 11:31:54;;;;;;;16.37;10.33;;;11.50;99.90;;;;;;5007160;28;20495;-83
2022/03/29 11:34:21;;;;;;;12.77;9.97;;;11.50;99.90;;;;;;5006514;28;20453;-82
2022/03/29 11:36:48;;;;;;;12.93;9.47;;;11.60;99.90;;;;;;5007154;28;20444;-82
2022/03/29 11:39:24;;;;;;;13.37;8.97;;;13.00;99.90;;;;;;5006310;28;20484;-82
2022/03/29 11:41:53;;;;;;;9.87;7.50;;;11.90;99.90;;;;;;5009506;28;20460;-81
2022/03/29 11:44:23;;;;;;;12.40;8.23;;;11.50;99.90;;;;;;5014097;28;20448;-82
2022/03/29 11:46:53;;;;;;;7.17;5.83;;;12.00;99.90;;;;;;5014656;28;20466;-80
2022/03/29 11:49:21;;;;;;;10.13;7.17;;;12.00;99.90;;;;;;5014200;28;20437;-81
2022/03/29 11:52:03;;;;;;;8.90;7.67;;;11.80;99.90;;;;;;5011744;28;20529;-79
2022/03/29 11:54:31;;;;;;;12.63;7.57;;;11.80;99.90;;;;;;5010182;28;20429;-78
2022/03/29 11:56:58;;;;;;;9.57;6.90;;;11.90;99.90;;;;;;5005773;28;20495;-82
2022/03/29 11:59:31;;;;;;;13.47;8.30;;;11.70;99.90;;;;;;5005090;28;20484;-81
2022/03/29 12:02:04;;;;;;;9.93;7.33;;;11.60;99.90;;;;;;5005347;28;20464;-81
2022/03/29 12:04:33;;;;;;;8.67;7.00;;;11.40;99.90;;;;;;5007044;28;20454;-82
2022/03/29 12:07:00;;;;;;;11.73;8.53;;;;;;;;;;5006256;28;20460;-80
2022/03/29 12:09:27;;;;;;;12.33;8.20;;;11.80;99.90;;;;;;5009869;28;20476;-82
2022/03/29 12:12:01;;;;;;;14.10;8.77;;;11.90;99.90;;;;;;5007232;28;20535;-83
2022/03/29 12:14:32;;;;;;;13.03;7.83;;;12.10;99.90;;;;;;5007348;28;20453;-83
2022/03/29 12:17:03;;;;;;;15.00;8.13;;;11.90;99.90;;;;;;5005073;28;20433;-83
2022/03/29 12:19:31;;;;;;;9.73;7.20;;;12.00;99.90;;;;;;5005631;28;20495;-82
2022/03/29 12:22:01;;;;;;;8.03;5.83;;;12.20;1.00;;;;;;5005801;28;20886;-82
2022/03/29 12:24:30;;;;;;;9.40;6.10;;;12.00;99.90;;;;;;5008338;28;20488;-83
2022/03/29 12:27:04;;;;;;;11.67;6.40;;;12.50;99.90;;;;;;5006586;28;20444;-82
2022/03/29 12:29:32;;;;;;;10.80;5.93;;;12.10;99.90;;;;;;5006418;28;20408;-81
2022/03/29 12:32:02;;;;;;;8.80;6.90;;;12.20;99.90;;;;;;5006096;28;20882;-82
2022/03/29 12:34:31;;;;;;;12.17;7.60;;;12.40;99.90;;;;;;5006563;28;20453;-81
2022/03/29 12:36:59;;;;;;;13.57;8.33;;;12.10;99.90;;;;;;5007975;28;20462;-83
2022/03/29 12:39:33;;;;;;;9.57;7.37;;;12.50;1.00;;;;;;5008835;28;21021;-82
2022/03/29 12:42:01;;;;;;;10.50;7.37;;;12.20;99.90;;;;;;5014157;28;20553;-81
2022/03/29 12:44:31;;;;;;;12.30;7.07;;;12.20;99.90;;;;;;5014627;28;20479;-81
2022/03/29 12:46:59;;;;;;;11.00;7.00;;;;;;;;;;5016517;28;20433;-82
2022/03/29 12:49:29;;;;;;;12.90;6.67;;;12.80;1.00;;;;;;5017022;28;20440;-82
2022/03/29 12:52:00;;;;;;;7.30;6.47;;;12.40;99.90;;;;;;5013231;28;20486;-82
2022/03/29 12:54:34;;;;;;;7.43;6.73;;;12.60;1.00;;;;;;5013402;28;20448;-81
2022/03/29 12:57:04;;;;;;;9.90;6.73;;;12.40;99.90;;;;;;5014259;28;20488;-83
2022/03/29 12:59:36;;;;;;;12.67;7.27;;;12.60;99.90;;;;;;5011688;28;20455;-81
2022/03/29 13:02:14;;;;;;;8.47;7.20;;;12.60;99.90;;;;;;5011384;28;20535;-79
2022/03/29 13:04:44;;;;;;;9.90;7.03;;;12.40;99.90;;;;;;5013176;28;20448;-80